Time;durP1;ratioP1;P1;durP2;ratioP2;P2;SDS_P1;SDS_P2;PMS_P1;PMS_P2;Temp;Humidity;BMP_temperature;BMP_pressure;BME280_temperature;BME280_humidity;BME280_pressure;Samples;Min_cycle;Max_cycle;Signal;HPM_P1;HPM_P2
2022/07/09 00:00:07;;;;;;;0.00;0.00;;;;;;;;;;5082305;28;20049;-60
2022/07/09 00:02:34;;;;;;;0.03;0.03;;;;;;;;;;5084917;28;20570;-60
2022/07/09 00:05:00;;;;;;;0.00;0.00;;;;;;;;;;5081457;28;20129;-60
2022/07/09 00:07:32;;;;;;;0.00;0.00;;;;;;;;;;5085336;28;20075;-60
2022/07/09 00:09:58;;;;;;;0.10;0.10;;;;;;;;;;5086365;28;20106;-61
2022/07/09 00:12:24;;;;;;;0.00;0.00;;;;;;;;;;5083768;28;20088;-60
2022/07/09 00:14:51;;;;;;;0.00;0.00;;;;;;;;;;5078344;28;20057;-60
2022/07/09 00:17:17;;;;;;;0.00;0.00;;;;;;;;;;5085109;28;20114;-60
2022/07/09 00:19:44;;;;;;;0.00;0.00;;;;;;;;;;5084147;28;20049;-60
2022/07/09 00:22:10;;;;;;;0.00;0.00;;;;;;;;;;5079698;28;20060;-60
2022/07/09 00:24:36;;;;;;;0.00;0.00;;;;;;;;;;5085101;28;20056;-60
2022/07/09 00:27:03;;;;;;;0.00;0.00;;;;;;;;;;5085116;28;20487;-60
2022/07/09 00:29:29;;;;;;;0.10;0.10;;;;;;;;;;5086929;28;20068;-60
2022/07/09 00:31:56;;;;;;;0.00;0.00;;;;;;;;;;5082494;28;20149;-60
2022/07/09 00:34:22;;;;;;;0.00;0.00;;;;;;;;;;5078848;28;20114;-60
2022/07/09 00:36:48;;;;;;;0.00;0.00;;;;;;;;;;5086262;28;20110;-60
2022/07/09 00:39:15;;;;;;;0.10;0.10;;;;;;;;;;5078439;28;20080;-59
2022/07/09 00:41:41;;;;;;;0.00;0.00;;;;;;;;;;5082753;28;20076;-60
2022/07/09 00:44:07;;;;;;;0.00;0.00;;;;;;;;;;5084889;28;20053;-60
2022/07/09 00:46:34;;;;;;;0.05;0.05;;;;;;;;;;5071409;28;20061;-60
2022/07/09 00:49:03;;;;;;;0.00;0.00;;;;;;;;;;5084224;28;20048;-60
2022/07/09 00:51:30;;;;;;;0.00;0.00;;;;;;;;;;5077722;28;20056;-60
2022/07/09 00:53:57;;;;;;;0.10;0.10;;;;;;;;;;5087688;28;20404;-60
2022/07/09 00:56:23;;;;;;;0.00;0.00;;;;;;;;;;5085898;28;20080;-60
2022/07/09 00:58:50;;;;;;;0.00;0.00;;;;;;;;;;5088259;28;20048;-60
2022/07/09 01:01:16;;;;;;;0.00;0.00;;;;;;;;;;5085662;28;20185;-59
2022/07/09 01:03:43;;;;;;;0.00;0.00;;;;;;;;;;5083406;28;21536;-60
2022/07/09 01:06:09;;;;;;;0.00;0.00;;;;;;;;;;5083333;28;20507;-60
2022/07/09 01:08:35;;;;;;;0.00;0.00;;;;;;;;;;5074364;28;20072;-60
2022/07/09 01:11:02;;;;;;;0.00;0.00;;;;;;;;;;5084443;28;20056;-60
2022/07/09 01:13:28;;;;;;;0.00;0.00;;;;;;;;;;5082698;28;20134;-59
2022/07/09 01:15:54;;;;;;;0.10;0.10;;;;;;;;;;5084978;28;20498;-60
2022/07/09 01:18:21;;;;;;;0.00;0.00;;;;;;;;;;5080045;28;20056;-60
2022/07/09 01:20:47;;;;;;;0.00;0.00;;;;;;;;;;5081801;28;20052;-60
2022/07/09 01:23:14;;;;;;;0.00;0.00;;;;;;;;;;5078223;28;20098;-60
2022/07/09 01:25:43;;;;;;;0.00;0.00;;;;;;;;;;5085637;28;20056;-60
2022/07/09 01:28:10;;;;;;;0.00;0.00;;;;;;;;;;5081649;28;20053;-60
2022/07/09 01:30:38;;;;;;;0.00;0.00;;;;;;;;;;5083651;28;20577;-60
2022/07/09 01:33:04;;;;;;;0.00;0.00;;;;;;;;;;5072862;28;20053;-60
2022/07/09 01:35:30;;;;;;;0.00;0.00;;;;;;;;;;5075301;28;20119;-60
2022/07/09 01:37:57;;;;;;;0.00;0.00;;;;;;;;;;5083030;28;20142;-61
2022/07/09 01:40:23;;;;;;;0.10;0.10;;;;;;;;;;5079266;28;20044;-60
2022/07/09 01:42:50;;;;;;;0.00;0.00;;;;;;;;;;5077593;28;20081;-60
2022/07/09 01:45:16;;;;;;;0.00;0.00;;;;;;;;;;5080667;28;20049;-60
2022/07/09 01:47:43;;;;;;;0.00;0.00;;;;;;;;;;5075577;28;20668;-60
2022/07/09 01:50:09;;;;;;;0.00;0.00;;;;;;;;;;5086327;28;20056;-61
2022/07/09 01:52:36;;;;;;;0.00;0.00;;;;;;;;;;5078803;28;20586;-60
2022/07/09 01:55:03;;;;;;;0.00;0.00;;;;;;;;;;5078334;28;20138;-60
2022/07/09 01:57:29;;;;;;;0.00;0.00;;;;;;;;;;5082876;28;20572;-60
2022/07/09 01:59:56;;;;;;;0.00;0.00;;;;;;;;;;5083430;28;20056;-60
2022/07/09 02:02:22;;;;;;;0.00;0.00;;;;;;;;;;5086166;28;20096;-60
2022/07/09 02:04:48;;;;;;;0.00;0.00;;;;;;;;;;5085642;28;20138;-60
2022/07/09 02:07:15;;;;;;;0.20;0.17;;;;;;;;;;5091191;28;20052;-60
2022/07/09 02:09:41;;;;;;;0.00;0.00;;;;;;;;;;5081018;28;20057;-60
2022/07/09 02:12:08;;;;;;;0.00;0.00;;;;;;;;;;5080450;28;20192;-60
2022/07/09 02:14:35;;;;;;;0.00;0.00;;;;;;;;;;5080951;28;20102;-60
2022/07/09 02:17:01;;;;;;;0.00;0.00;;;;;;;;;;5083854;28;20110;-60
2022/07/09 02:19:27;;;;;;;0.00;0.00;;;;;;;;;;5089316;28;20052;-60
2022/07/09 02:21:54;;;;;;;0.00;0.00;;;;;;;;;;5089627;28;20076;-60
2022/07/09 02:24:20;;;;;;;0.00;0.00;;;;;;;;;;5082898;28;20141;-60
2022/07/09 02:26:46;;;;;;;0.00;0.00;;;;;;;;;;5087976;28;20146;-60
2022/07/09 02:29:13;;;;;;;0.00;0.00;;;;;;;;;;5088974;28;20110;-60
2022/07/09 02:31:39;;;;;;;0.00;0.00;;;;;;;;;;5076606;28;20103;-60
2022/07/09 02:34:06;;;;;;;0.00;0.00;;;;;;;;;;5085681;28;20048;-60
2022/07/09 02:36:32;;;;;;;0.10;0.10;;;;;;;;;;5083874;28;20080;-60
2022/07/09 02:38:58;;;;;;;0.35;0.35;;;;;;;;;;5090530;28;20052;-60
2022/07/09 02:41:25;;;;;;;0.00;0.00;;;;;;;;;;5088142;28;20054;-61
2022/07/09 02:43:52;;;;;;;0.00;0.00;;;;;;;;;;5084069;28;20088;-61
2022/07/09 02:46:18;;;;;;;0.00;0.00;;;;;;;;;;5082202;28;20094;-60
2022/07/09 02:48:45;;;;;;;0.00;0.00;;;;;;;;;;5085441;28;20054;-60
2022/07/09 02:51:11;;;;;;;0.00;0.00;;;;;;;;;;5084552;28;20110;-60
2022/07/09 02:53:37;;;;;;;0.00;0.00;;;;;;;;;;5081343;28;20057;-60
2022/07/09 02:56:04;;;;;;;0.00;0.00;;;;;;;;;;5087637;28;20080;-60
2022/07/09 02:58:33;;;;;;;0.00;0.00;;;;;;;;;;5085045;28;20056;-60
2022/07/09 03:01:00;;;;;;;0.00;0.00;;;;;;;;;;5083608;28;20052;-60
2022/07/09 03:03:27;;;;;;;0.20;0.10;;;;;;;;;;5083154;28;20064;-61
2022/07/09 03:05:53;;;;;;;0.00;0.00;;;;;;;;;;5080970;28;20084;-60
2022/07/09 03:08:21;;;;;;;0.00;0.00;;;;;;;;;;5088337;28;20049;-60
2022/07/09 03:10:49;;;;;;;0.00;0.00;;;;;;;;;;5084954;28;20065;-60
2022/07/09 03:13:15;;;;;;;0.00;0.00;;;;;;;;;;5073285;28;20128;-60
2022/07/09 03:15:42;;;;;;;0.00;0.00;;;;;;;;;;5082714;28;20888;-61
2022/07/09 03:18:09;;;;;;;0.05;0.05;;;;;;;;;;5088283;28;20461;-60
2022/07/09 03:20:35;;;;;;;0.00;0.00;;;;;;;;;;5088178;28;20076;-60
2022/07/09 03:23:02;;;;;;;0.00;0.00;;;;;;;;;;5088931;28;20057;-60
2022/07/09 03:25:29;;;;;;;0.00;0.00;;;;;;;;;;5087251;28;20102;-60
2022/07/09 03:27:55;;;;;;;0.00;0.00;;;;;;;;;;5084533;28;20056;-61
2022/07/09 03:30:23;;;;;;;0.00;0.00;;;;;;;;;;5083658;28;20052;-60
2022/07/09 03:32:50;;;;;;;0.00;0.00;;;;;;;;;;5079220;28;20052;-60
2022/07/09 03:35:16;;;;;;;0.00;0.00;;;;;;;;;;5084853;28;20067;-60
2022/07/09 03:37:43;;;;;;;0.00;0.00;;;;;;;;;;5085224;28;20048;-60
2022/07/09 03:40:09;;;;;;;0.00;0.00;;;;;;;;;;5086425;28;20141;-60
2022/07/09 03:42:36;;;;;;;0.00;0.00;;;;;;;;;;5085858;28;20060;-60
2022/07/09 03:45:02;;;;;;;0.00;0.00;;;;;;;;;;5081459;28;20057;-60
2022/07/09 03:47:28;;;;;;;0.00;0.00;;;;;;;;;;5084423;28;20515;-60
2022/07/09 03:49:55;;;;;;;0.00;0.00;;;;;;;;;;5080454;28;20091;-60
2022/07/09 03:52:21;;;;;;;0.00;0.00;;;;;;;;;;5084992;28;20084;-60
2022/07/09 03:54:48;;;;;;;0.00;0.00;;;;;;;;;;5080652;28;20520;-60
2022/07/09 03:57:14;;;;;;;0.00;0.00;;;;;;;;;;5077701;28;20557;-61
2022/07/09 03:59:41;;;;;;;0.00;0.00;;;;;;;;;;5087607;28;20103;-60
2022/07/09 04:02:07;;;;;;;0.00;0.00;;;;;;;;;;5085806;28;20503;-61
2022/07/09 04:04:39;;;;;;;0.00;0.00;;;;;;;;;;5084587;28;20076;-60
2022/07/09 04:07:05;;;;;;;0.00;0.00;;;;;;;;;;5087079;28;20052;-60
2022/07/09 04:09:32;;;;;;;0.00;0.00;;;;;;;;;;5083690;28;20110;-60
2022/07/09 04:11:58;;;;;;;0.00;0.00;;;;;;;;;;5086812;28;20088;-60
2022/07/09 04:14:24;;;;;;;0.00;0.00;;;;;;;;;;5078972;28;20080;-61
2022/07/09 04:16:51;;;;;;;0.00;0.00;;;;;;;;;;5087450;28;20114;-60
2022/07/09 04:19:17;;;;;;;0.00;0.00;;;;;;;;;;5081995;28;20503;-60
2022/07/09 04:21:44;;;;;;;0.00;0.00;;;;;;;;;;5078118;28;20572;-60
2022/07/09 04:24:10;;;;;;;0.00;0.00;;;;;;;;;;5082224;28;20494;-60
2022/07/09 04:26:37;;;;;;;0.00;0.00;;;;;;;;;;5080474;28;20049;-60
2022/07/09 04:29:03;;;;;;;0.00;0.00;;;;;;;;;;5087983;28;20088;-60
2022/07/09 04:31:29;;;;;;;0.00;0.00;;;;;;;;;;5085378;28;20411;-60
2022/07/09 04:33:56;;;;;;;0.00;0.00;;;;;;;;;;5082421;28;20705;-60
2022/07/09 04:36:22;;;;;;;0.17;0.10;;;;;;;;;;5075701;28;20549;-60
2022/07/09 04:38:48;;;;;;;0.00;0.00;;;;;;;;;;5084400;28;20080;-60
2022/07/09 04:41:15;;;;;;;0.00;0.00;;;;;;;;;;5078958;28;20150;-60
2022/07/09 04:43:41;;;;;;;0.00;0.00;;;;;;;;;;5076530;28;20415;-60
2022/07/09 04:46:07;;;;;;;0.00;0.00;;;;;;;;;;5083001;28;20053;-60
2022/07/09 04:48:34;;;;;;;0.00;0.00;;;;;;;;;;5081633;28;20199;-60
2022/07/09 04:51:01;;;;;;;0.00;0.00;;;;;;;;;;5084363;28;20044;-61
2022/07/09 04:53:27;;;;;;;0.00;0.00;;;;;;;;;;5081601;28;20049;-59
2022/07/09 04:55:54;;;;;;;0.00;0.00;;;;;;;;;;5084129;28;20115;-60
2022/07/09 04:58:20;;;;;;;0.00;0.00;;;;;;;;;;5080240;28;20056;-60
2022/07/09 05:00:46;;;;;;;0.00;0.00;;;;;;;;;;5080845;28;20153;-60
2022/07/09 05:03:13;;;;;;;0.00;0.00;;;;;;;;;;5076556;28;20057;-61
2022/07/09 05:05:39;;;;;;;0.00;0.00;;;;;;;;;;5078257;28;21373;-61
2022/07/09 05:08:15;;;;;;;0.00;0.00;;;;;;;;;;5080243;28;20063;-60
2022/07/09 05:10:41;;;;;;;0.00;0.00;;;;;;;;;;5083992;28;20049;-60
2022/07/09 05:13:08;;;;;;;0.00;0.00;;;;;;;;;;5074320;28;20115;-60
2022/07/09 05:15:34;;;;;;;0.00;0.00;;;;;;;;;;5087615;28;20052;-60
2022/07/09 05:18:00;;;;;;;0.00;0.00;;;;;;;;;;5088094;28;20126;-60
2022/07/09 05:20:27;;;;;;;0.00;0.00;;;;;;;;;;5087224;28;20122;-60
2022/07/09 05:22:53;;;;;;;0.00;0.00;;;;;;;;;;5087877;28;20110;-60
2022/07/09 05:25:20;;;;;;;0.00;0.00;;;;;;;;;;5087720;28;20134;-60
2022/07/09 05:27:47;;;;;;;0.00;0.00;;;;;;;;;;5087441;28;20479;-60
2022/07/09 05:30:14;;;;;;;0.00;0.00;;;;;;;;;;5087122;28;20579;-60
2022/07/09 05:32:45;;;;;;;0.10;0.10;;;;;;;;;;5087089;28;20054;-60
2022/07/09 05:35:12;;;;;;;0.00;0.00;;;;;;;;;;5090995;28;20541;-60
2022/07/09 05:37:42;;;;;;;0.00;0.00;;;;;;;;;;5091059;28;20060;-60
2022/07/09 05:40:09;;;;;;;0.00;0.00;;;;;;;;;;5090427;28;20076;-60
2022/07/09 05:42:36;;;;;;;0.00;0.00;;;;;;;;;;5091741;28;20141;-60
2022/07/09 05:45:02;;;;;;;0.00;0.00;;;;;;;;;;5089690;28;20086;-60
2022/07/09 05:47:29;;;;;;;0.00;0.00;;;;;;;;;;5090585;28;21535;-61
2022/07/09 05:49:55;;;;;;;0.00;0.00;;;;;;;;;;5091136;28;20102;-60
2022/07/09 05:52:21;;;;;;;0.00;0.00;;;;;;;;;;5090872;28;20053;-60
2022/07/09 05:54:48;;;;;;;0.00;0.00;;;;;;;;;;5081688;28;20080;-61
2022/07/09 05:57:14;;;;;;;0.00;0.00;;;;;;;;;;5091155;28;20060;-61
2022/07/09 05:59:40;;;;;;;0.00;0.00;;;;;;;;;;5091043;28;20053;-60
2022/07/09 06:02:07;;;;;;;0.00;0.00;;;;;;;;;;5088145;28;20088;-60
2022/07/09 06:04:33;;;;;;;0.00;0.00;;;;;;;;;;5083318;28;20529;-61
2022/07/09 06:07:00;;;;;;;0.00;0.00;;;;;;;;;;5090205;28;20106;-60
2022/07/09 06:09:26;;;;;;;0.00;0.00;;;;;;;;;;5088519;28;20053;-60
2022/07/09 06:11:52;;;;;;;0.00;0.00;;;;;;;;;;5091175;28;20149;-60
2022/07/09 06:14:19;;;;;;;0.00;0.00;;;;;;;;;;5085465;28;20146;-60
2022/07/09 06:16:54;;;;;;;0.00;0.00;;;;;;;;;;5090462;28;20519;-60
2022/07/09 06:19:20;;;;;;;0.00;0.00;;;;;;;;;;5086838;28;20056;-60
2022/07/09 06:21:47;;;;;;;0.00;0.00;;;;;;;;;;5090254;28;20080;-60
2022/07/09 06:24:13;;;;;;;0.00;0.00;;;;;;;;;;5091023;28;20083;-61
2022/07/09 06:26:40;;;;;;;0.00;0.00;;;;;;;;;;5090218;28;20096;-60
2022/07/09 06:29:06;;;;;;;0.00;0.00;;;;;;;;;;5086311;28;20079;-60
2022/07/09 06:31:32;;;;;;;0.00;0.00;;;;;;;;;;5085286;28;20087;-60
2022/07/09 06:33:59;;;;;;;0.00;0.00;;;;;;;;;;5088064;28;20053;-60
2022/07/09 06:36:26;;;;;;;0.20;0.10;;;;;;;;;;5081050;28;20051;-60
2022/07/09 06:41:37;;;;;;;0.00;0.00;;;;;;;;;;5078005;28;20060;-60
2022/07/09 06:44:04;;;;;;;0.00;0.00;;;;;;;;;;5078912;28;20134;-60
2022/07/09 06:46:30;;;;;;;0.00;0.00;;;;;;;;;;5075481;28;20053;-61
2022/07/09 06:48:56;;;;;;;0.00;0.00;;;;;;;;;;5086742;28;20110;-61
2022/07/09 06:51:23;;;;;;;0.00;0.00;;;;;;;;;;5084986;28;20081;-59
2022/07/09 06:53:49;;;;;;;0.00;0.00;;;;;;;;;;5078340;28;20065;-59
2022/07/09 06:56:15;;;;;;;0.00;0.00;;;;;;;;;;5087049;28;20087;-60
2022/07/09 06:58:42;;;;;;;0.10;0.10;;;;;;;;;;5088727;28;20057;-59
2022/07/09 07:01:08;;;;;;;0.00;0.00;;;;;;;;;;5089479;28;20036;-60
2022/07/09 07:03:35;;;;;;;0.00;0.00;;;;;;;;;;5089642;28;20049;-59
2022/07/09 07:06:01;;;;;;;0.00;0.00;;;;;;;;;;5089554;28;20082;-60
2022/07/09 07:08:28;;;;;;;0.00;0.00;;;;;;;;;;5088821;28;20655;-60
2022/07/09 07:10:54;;;;;;;0.00;0.00;;;;;;;;;;5084564;28;20106;-60
2022/07/09 07:13:20;;;;;;;0.00;0.00;;;;;;;;;;5088895;28;20095;-60
2022/07/09 07:15:49;;;;;;;0.00;0.00;;;;;;;;;;5089155;28;20937;-60
2022/07/09 07:18:16;;;;;;;0.00;0.00;;;;;;;;;;5088597;28;20063;-59
2022/07/09 07:20:43;;;;;;;0.00;0.00;;;;;;;;;;5080177;28;20060;-60
2022/07/09 07:23:09;;;;;;;0.00;0.00;;;;;;;;;;5085550;28;20344;-60
2022/07/09 07:25:35;;;;;;;0.00;0.00;;;;;;;;;;5088786;28;20855;-60
2022/07/09 07:28:03;;;;;;;0.00;0.00;;;;;;;;;;5088919;28;20507;-60
2022/07/09 07:30:32;;;;;;;0.00;0.00;;;;;;;;;;5087414;28;20102;-67
2022/07/09 07:32:59;;;;;;;0.00;0.00;;;;;;;;;;5078597;28;20064;-68
2022/07/09 07:35:25;;;;;;;0.00;0.00;;;;;;;;;;5085484;28;20057;-62
2022/07/09 07:37:52;;;;;;;0.00;0.00;;;;;;;;;;5082962;28;20071;-62
2022/07/09 07:40:18;;;;;;;0.00;0.00;;;;;;;;;;5089203;28;20060;-61
2022/07/09 07:42:44;;;;;;;0.05;0.05;;;;;;;;;;5086438;28;20110;-61
2022/07/09 07:45:11;;;;;;;0.00;0.00;;;;;;;;;;5069539;28;20057;-61
2022/07/09 07:47:38;;;;;;;0.00;0.00;;;;;;;;;;5070003;28;20080;-61
2022/07/09 07:50:05;;;;;;;0.00;0.00;;;;;;;;;;5069330;28;20041;-61
2022/07/09 07:52:31;;;;;;;0.00;0.00;;;;;;;;;;5069017;28;20057;-61
2022/07/09 07:54:58;;;;;;;0.00;0.00;;;;;;;;;;5069118;28;20099;-62
2022/07/09 07:57:24;;;;;;;0.00;0.00;;;;;;;;;;5069505;28;20081;-63
2022/07/09 07:59:50;;;;;;;0.00;0.00;;;;;;;;;;5072682;28;20494;-61
2022/07/09 08:02:17;;;;;;;0.00;0.00;;;;;;;;;;5071143;28;20580;-61
2022/07/09 08:04:43;;;;;;;0.00;0.00;;;;;;;;;;5069267;28;20057;-61
2022/07/09 08:07:10;;;;;;;0.00;0.00;;;;;;;;;;5070993;28;20080;-61
2022/07/09 08:09:36;;;;;;;0.00;0.00;;;;;;;;;;5084438;28;20094;-61
2022/07/09 08:12:03;;;;;;;0.00;0.00;;;;;;;;;;5088485;28;20079;-61
2022/07/09 08:14:29;;;;;;;0.10;0.10;;;;;;;;;;5080273;28;20080;-61
2022/07/09 08:16:55;;;;;;;0.00;0.00;;;;;;;;;;5071992;28;20053;-61
2022/07/09 08:19:22;;;;;;;0.10;0.05;;;;;;;;;;5089066;28;20063;-61
2022/07/09 08:21:54;;;;;;;0.00;0.00;;;;;;;;;;5088989;28;20064;-61
2022/07/09 08:24:20;;;;;;;0.00;0.00;;;;;;;;;;5075921;28;20052;-61
2022/07/09 08:26:46;;;;;;;0.00;0.00;;;;;;;;;;5071340;28;20138;-61
2022/07/09 08:29:13;;;;;;;0.00;0.00;;;;;;;;;;5068536;28;20121;-61
2022/07/09 08:31:39;;;;;;;0.00;0.00;;;;;;;;;;5072040;28;20052;-61
2022/07/09 08:34:06;;;;;;;0.00;0.00;;;;;;;;;;5069266;28;20053;-61
2022/07/09 08:36:32;;;;;;;0.00;0.00;;;;;;;;;;5071605;28;20573;-62
2022/07/09 08:38:58;;;;;;;0.00;0.00;;;;;;;;;;5087178;28;20249;-61
2022/07/09 08:41:28;;;;;;;0.00;0.00;;;;;;;;;;5077510;28;20167;-60
2022/07/09 08:43:54;;;;;;;0.00;0.00;;;;;;;;;;5086680;28;20083;-60
2022/07/09 08:46:20;;;;;;;0.00;0.00;;;;;;;;;;5082704;28;20134;-60
2022/07/09 08:48:48;;;;;;;0.00;0.00;;;;;;;;;;5075093;28;20060;-61
2022/07/09 08:51:14;;;;;;;0.00;0.00;;;;;;;;;;5070304;28;20111;-61
2022/07/09 08:53:42;;;;;;;0.00;0.00;;;;;;;;;;5072985;28;20268;-61
2022/07/09 08:56:09;;;;;;;0.00;0.00;;;;;;;;;;5075554;27;20052;-61
2022/07/09 08:58:35;;;;;;;0.00;0.00;;;;;;;;;;5089264;28;20056;-61
2022/07/09 09:01:04;;;;;;;0.00;0.00;;;;;;;;;;5088975;28;20144;-61
2022/07/09 09:03:30;;;;;;;0.00;0.00;;;;;;;;;;5075005;28;20099;-60
2022/07/09 09:06:01;;;;;;;0.00;0.00;;;;;;;;;;5067224;28;20053;-60
2022/07/09 09:08:32;;;;;;;0.08;0.08;;;;;;;;;;5067743;28;20056;-61
2022/07/09 09:10:59;;;;;;;0.00;0.00;;;;;;;;;;5072869;28;20086;-60
2022/07/09 09:13:25;;;;;;;0.00;0.00;;;;;;;;;;5077808;28;20096;-60
2022/07/09 09:16:07;;;;;;;0.03;0.00;;;;;;;;;;5084962;28;20049;-60
2022/07/09 09:18:36;;;;;;;0.00;0.00;;;;;;;;;;5085209;28;20057;-61
2022/07/09 09:21:04;;;;;;;0.00;0.00;;;;;;;;;;5089379;28;20118;-61
2022/07/09 09:23:44;;;;;;;0.00;0.00;;;;;;;;;;5094423;28;20437;-61
2022/07/09 09:26:14;;;;;;;0.00;0.00;;;;;;;;;;5077125;28;20127;-61
2022/07/09 09:28:47;;;;;;;0.00;0.00;;;;;;;;;;5067788;28;20069;-61
2022/07/09 09:31:17;;;;;;;0.00;0.00;;;;;;;;;;5068967;28;20057;-63
2022/07/09 09:33:44;;;;;;;0.00;0.00;;;;;;;;;;5066817;28;20156;-62
2022/07/09 09:36:10;;;;;;;0.00;0.00;;;;;;;;;;5082119;28;20113;-62
2022/07/09 09:38:37;;;;;;;0.00;0.00;;;;;;;;;;5078505;28;20053;-61
2022/07/09 09:41:03;;;;;;;0.00;0.00;;;;;;;;;;5067496;28;20069;-60
2022/07/09 09:43:30;;;;;;;0.00;0.00;;;;;;;;;;5065124;28;20057;-60
2022/07/09 09:45:58;;;;;;;0.00;0.00;;;;;;;;;;5067053;28;20061;-60
2022/07/09 09:48:24;;;;;;;0.00;0.00;;;;;;;;;;5066674;28;20041;-61
2022/07/09 09:50:55;;;;;;;0.70;0.52;;;;;;;;;;5066626;28;20499;-60
2022/07/09 09:53:23;;;;;;;0.10;0.10;;;;;;;;;;5074409;28;20588;-60
2022/07/09 09:55:50;;;;;;;0.00;0.00;;;;;;;;;;5087731;28;20048;-61
2022/07/09 09:58:22;;;;;;;0.00;0.00;;;;;;;;;;5075504;28;20053;-62
2022/07/09 10:00:49;;;;;;;0.00;0.00;;;;;;;;;;5076658;28;20057;-62
2022/07/09 10:03:16;;;;;;;0.00;0.00;;;;;;;;;;5078772;28;20056;-63
2022/07/09 10:05:42;;;;;;;0.00;0.00;;;;;;;;;;5085872;28;20866;-62
2022/07/09 10:08:09;;;;;;;0.00;0.00;;;;;;;;;;5087316;28;20150;-62
2022/07/09 10:10:35;;;;;;;0.00;0.00;;;;;;;;;;5087427;28;20048;-62
2022/07/09 10:13:01;;;;;;;0.00;0.00;;;;;;;;;;5087480;28;20522;-62
2022/07/09 10:15:31;;;;;;;0.00;0.00;;;;;;;;;;5086357;28;20438;-62
2022/07/09 10:17:57;;;;;;;0.00;0.00;;;;;;;;;;5088823;28;20079;-62
2022/07/09 10:20:32;;;;;;;0.00;0.00;;;;;;;;;;5090996;28;20062;-62
2022/07/09 10:22:58;;;;;;;0.00;0.00;;;;;;;;;;5090777;28;20565;-62
2022/07/09 10:25:29;;;;;;;0.00;0.00;;;;;;;;;;5091152;28;20552;-62
2022/07/09 10:27:55;;;;;;;0.00;0.00;;;;;;;;;;5091087;28;20118;-62
2022/07/09 10:30:32;;;;;;;0.00;0.00;;;;;;;;;;5089954;28;20117;-62
2022/07/09 10:33:07;;;;;;;0.00;0.00;;;;;;;;;;5090390;28;20106;-62
2022/07/09 10:35:44;;;;;;;0.00;0.00;;;;;;;;;;5090045;28;20111;-62
2022/07/09 10:38:10;;;;;;;0.00;0.00;;;;;;;;;;5090900;28;20057;-62
2022/07/09 10:40:41;;;;;;;0.00;0.00;;;;;;;;;;5088805;28;20057;-62
2022/07/09 10:43:07;;;;;;;0.00;0.00;;;;;;;;;;5090555;28;20094;-62
2022/07/09 10:45:34;;;;;;;0.00;0.00;;;;;;;;;;5090283;28;20506;-62
2022/07/09 10:48:01;;;;;;;0.00;0.00;;;;;;;;;;5090564;28;20052;-62
2022/07/09 10:50:28;;;;;;;0.00;0.00;;;;;;;;;;5090271;28;20048;-62
2022/07/09 10:52:55;;;;;;;0.00;0.00;;;;;;;;;;5089952;28;20061;-62
2022/07/09 10:55:22;;;;;;;0.00;0.00;;;;;;;;;;5089981;28;20483;-62
2022/07/09 10:57:49;;;;;;;0.00;0.00;;;;;;;;;;5090337;28;20091;-62
2022/07/09 11:00:16;;;;;;;0.00;0.00;;;;;;;;;;5090242;28;20513;-62
2022/07/09 11:03:03;;;;;;;0.00;0.00;;;;;;;;;;5089821;28;20088;-62
2022/07/09 11:05:30;;;;;;;0.00;0.00;;;;;;;;;;5088909;28;20283;-62
2022/07/09 11:07:58;;;;;;;0.00;0.00;;;;;;;;;;5090118;28;20110;-62
2022/07/09 11:10:26;;;;;;;0.00;0.00;;;;;;;;;;5090125;28;20068;-62
2022/07/09 11:12:53;;;;;;;0.00;0.00;;;;;;;;;;5089512;28;20925;-62
2022/07/09 11:15:20;;;;;;;0.00;0.00;;;;;;;;;;5089871;28;20491;-62
2022/07/09 11:18:03;;;;;;;0.00;0.00;;;;;;;;;;5090606;28;20287;-62
2022/07/09 11:20:31;;;;;;;0.00;0.00;;;;;;;;;;5089918;28;20147;-62
2022/07/09 11:22:59;;;;;;;0.00;0.00;;;;;;;;;;5089740;28;20115;-62
2022/07/09 11:25:26;;;;;;;0.00;0.00;;;;;;;;;;5089471;28;20048;-62
2022/07/09 11:27:54;;;;;;;0.00;0.00;;;;;;;;;;5089104;28;20064;-62
2022/07/09 11:30:21;;;;;;;0.00;0.00;;;;;;;;;;5088071;28;20502;-62
2022/07/09 11:32:47;;;;;;;0.00;0.00;;;;;;;;;;5089642;28;20118;-63
2022/07/09 11:35:34;;;;;;;0.00;0.00;;;;;;;;;;5089236;28;20052;-62
2022/07/09 11:38:02;;;;;;;0.00;0.00;;;;;;;;;;5089724;28;20056;-62
2022/07/09 11:40:28;;;;;;;0.00;0.00;;;;;;;;;;5088897;28;20122;-62
2022/07/09 11:42:55;;;;;;;0.00;0.00;;;;;;;;;;5089815;28;20133;-62
2022/07/09 11:45:22;;;;;;;0.00;0.00;;;;;;;;;;5089245;28;20580;-62
2022/07/09 11:47:49;;;;;;;0.00;0.00;;;;;;;;;;5089417;28;20056;-62
2022/07/09 11:50:18;;;;;;;0.00;0.00;;;;;;;;;;5089269;28;20052;-62
2022/07/09 11:52:46;;;;;;;0.00;0.00;;;;;;;;;;5089652;28;20048;-62
2022/07/09 11:55:14;;;;;;;0.00;0.00;;;;;;;;;;5087866;28;20052;-62
2022/07/09 11:57:50;;;;;;;0.00;0.00;;;;;;;;;;5088882;28;20068;-62
2022/07/09 12:00:28;;;;;;;0.00;0.00;;;;;;;;;;5088769;28;20522;-62
2022/07/09 12:02:55;;;;;;;0.13;0.13;;;;;;;;;;5088843;28;20052;-62
2022/07/09 12:05:26;;;;;;;0.00;0.00;;;;;;;;;;5089188;28;20564;-62
2022/07/09 12:07:52;;;;;;;0.00;0.00;;;;;;;;;;5088568;28;20080;-62
2022/07/09 12:10:25;;;;;;;0.00;0.00;;;;;;;;;;5088697;28;20472;-62
2022/07/09 12:12:51;;;;;;;0.00;0.00;;;;;;;;;;5089284;28;20056;-62
2022/07/09 12:15:17;;;;;;;0.00;0.00;;;;;;;;;;5089033;28;20076;-63
2022/07/09 12:17:44;;;;;;;0.00;0.00;;;;;;;;;;5089027;28;20087;-62
2022/07/09 12:20:10;;;;;;;0.00;0.00;;;;;;;;;;5088218;28;20110;-63
2022/07/09 12:22:37;;;;;;;0.00;0.00;;;;;;;;;;5088423;28;20489;-62
2022/07/09 12:25:03;;;;;;;0.00;0.00;;;;;;;;;;5088748;28;20106;-62
2022/07/09 12:27:30;;;;;;;0.00;0.00;;;;;;;;;;5088513;28;20061;-62
2022/07/09 12:29:56;;;;;;;0.00;0.00;;;;;;;;;;5088504;28;20056;-63
2022/07/09 12:32:22;;;;;;;0.00;0.00;;;;;;;;;;5088818;28;20114;-62
2022/07/09 12:34:49;;;;;;;0.00;0.00;;;;;;;;;;5088541;28;20530;-62
2022/07/09 12:37:15;;;;;;;0.00;0.00;;;;;;;;;;5088887;28;20107;-62
2022/07/09 12:39:41;;;;;;;0.00;0.00;;;;;;;;;;5088353;28;20056;-62
2022/07/09 12:42:17;;;;;;;0.00;0.00;;;;;;;;;;5087983;28;20060;-63
2022/07/09 12:44:44;;;;;;;0.00;0.00;;;;;;;;;;5087201;28;20075;-63
2022/07/09 12:47:10;;;;;;;0.00;0.00;;;;;;;;;;5088262;28;20056;-62
2022/07/09 12:49:37;;;;;;;0.00;0.00;;;;;;;;;;5088636;28;20056;-62
2022/07/09 12:52:03;;;;;;;0.00;0.00;;;;;;;;;;5088473;28;20052;-62
2022/07/09 12:54:30;;;;;;;0.00;0.00;;;;;;;;;;5087434;28;20106;-62
2022/07/09 12:56:56;;;;;;;0.00;0.00;;;;;;;;;;5087924;28;20506;-62
2022/07/09 12:59:38;;;;;;;0.00;0.00;;;;;;;;;;5088941;28;20532;-62
2022/07/09 13:02:05;;;;;;;0.00;0.00;;;;;;;;;;5088305;28;20083;-63
2022/07/09 13:04:32;;;;;;;1.40;0.83;;;;;;;;;;5087424;28;20060;-62
2022/07/09 13:06:58;;;;;;;0.00;0.00;;;;;;;;;;5087647;28;20329;-62
2022/07/09 13:09:24;;;;;;;0.00;0.00;;;;;;;;;;5086995;28;20052;-62
2022/07/09 13:11:51;;;;;;;0.00;0.00;;;;;;;;;;5087781;28;20048;-62
2022/07/09 13:14:17;;;;;;;0.00;0.00;;;;;;;;;;5087038;28;20088;-62
2022/07/09 13:16:44;;;;;;;0.00;0.00;;;;;;;;;;5087775;28;20576;-62
2022/07/09 13:19:30;;;;;;;0.00;0.00;;;;;;;;;;5087621;28;20147;-62
2022/07/09 13:21:57;;;;;;;0.00;0.00;;;;;;;;;;5087950;28;20094;-62
2022/07/09 13:24:23;;;;;;;0.00;0.00;;;;;;;;;;5088284;28;20056;-62
2022/07/09 13:26:49;;;;;;;0.00;0.00;;;;;;;;;;5088698;28;20088;-61
2022/07/09 13:29:16;;;;;;;0.10;0.10;;;;;;;;;;5087566;28;20099;-62
2022/07/09 13:31:42;;;;;;;0.00;0.00;;;;;;;;;;5087365;28;20127;-62
2022/07/09 13:34:09;;;;;;;0.00;0.00;;;;;;;;;;5086916;28;20056;-62
2022/07/09 13:36:35;;;;;;;0.00;0.00;;;;;;;;;;5087391;28;20056;-62
2022/07/09 13:39:01;;;;;;;0.00;0.00;;;;;;;;;;5087527;28;20060;-62
2022/07/09 13:41:28;;;;;;;0.00;0.00;;;;;;;;;;5087226;28;20237;-62
2022/07/09 13:43:54;;;;;;;0.00;0.00;;;;;;;;;;5087801;28;20052;-62
2022/07/09 13:46:20;;;;;;;0.00;0.00;;;;;;;;;;5087753;28;20056;-62
2022/07/09 13:48:47;;;;;;;0.00;0.00;;;;;;;;;;5087376;28;20057;-62
2022/07/09 13:51:13;;;;;;;0.00;0.00;;;;;;;;;;5087627;28;20053;-62
2022/07/09 13:53:40;;;;;;;0.00;0.00;;;;;;;;;;5090957;28;20060;-62
2022/07/09 13:56:07;;;;;;;0.00;0.00;;;;;;;;;;5091669;28;20474;-62
2022/07/09 13:58:34;;;;;;;0.00;0.00;;;;;;;;;;5090224;28;20056;-62
2022/07/09 14:01:01;;;;;;;0.35;0.10;;;;;;;;;;5091399;28;20084;-61
2022/07/09 14:03:27;;;;;;;0.00;0.00;;;;;;;;;;5091079;28;20426;-62
2022/07/09 14:05:54;;;;;;;0.00;0.00;;;;;;;;;;5090939;28;20060;-62
2022/07/09 14:08:24;;;;;;;0.00;0.00;;;;;;;;;;5090806;28;20057;-62
2022/07/09 14:10:57;;;;;;;0.00;0.00;;;;;;;;;;5091005;28;20110;-62
2022/07/09 14:13:25;;;;;;;0.00;0.00;;;;;;;;;;5090341;28;20061;-62
2022/07/09 14:15:55;;;;;;;0.20;0.20;;;;;;;;;;5090453;28;20048;-62
2022/07/09 14:18:22;;;;;;;0.10;0.10;;;;;;;;;;5090471;28;20052;-62
2022/07/09 14:20:48;;;;;;;0.00;0.00;;;;;;;;;;5090412;28;20056;-62
2022/07/09 14:23:15;;;;;;;0.00;0.00;;;;;;;;;;5089967;28;20086;-62
2022/07/09 14:25:42;;;;;;;0.08;0.08;;;;;;;;;;5090767;28;20061;-62
2022/07/09 14:28:08;;;;;;;0.00;0.00;;;;;;;;;;5090951;28;20580;-62
2022/07/09 14:30:34;;;;;;;0.00;0.00;;;;;;;;;;5090610;28;20106;-62
2022/07/09 14:33:01;;;;;;;0.00;0.00;;;;;;;;;;5090484;28;20059;-62
2022/07/09 14:35:27;;;;;;;0.00;0.00;;;;;;;;;;5090337;28;20114;-62
2022/07/09 14:37:54;;;;;;;0.00;0.00;;;;;;;;;;5090951;28;20052;-62
2022/07/09 14:40:20;;;;;;;0.00;0.00;;;;;;;;;;5089650;28;20091;-62
2022/07/09 14:42:46;;;;;;;0.00;0.00;;;;;;;;;;5090158;28;20098;-62
2022/07/09 14:45:13;;;;;;;0.00;0.00;;;;;;;;;;5090569;28;20057;-62